sensor_id;sensor_type;location;lat;lon;timestamp;P1;durP1;ratioP1;P2;durP2;ratioP2
18917;SDS011;9591;52.742;13.650;2023-04-25T00:02:32;7.73;;;3.20;;
18917;SDS011;9591;52.742;13.650;2023-04-25T00:05:21;7.87;;;2.80;;
18917;SDS011;9591;52.742;13.650;2023-04-25T00:08:08;6.37;;;3.07;;
18917;SDS011;9591;52.742;13.650;2023-04-25T00:10:55;7.10;;;3.20;;
18917;SDS011;9591;52.742;13.650;2023-04-25T00:13:42;3.10;;;2.80;;
18917;SDS011;9591;52.742;13.650;2023-04-25T00:16:32;3.63;;;3.10;;
18917;SDS011;9591;52.742;13.650;2023-04-25T00:19:20;7.50;;;3.90;;
18917;SDS011;9591;52.742;13.650;2023-04-25T00:22:08;3.73;;;3.43;;
18917;SDS011;9591;52.742;13.650;2023-04-25T00:24:54;6.13;;;3.00;;
18917;SDS011;9591;52.742;13.650;2023-04-25T00:27:42;4.30;;;3.27;;
18917;SDS011;9591;52.742;13.650;2023-04-25T00:30:29;8.20;;;3.27;;
18917;SDS011;9591;52.742;13.650;2023-04-25T00:33:16;3.90;;;3.23;;
18917;SDS011;9591;52.742;13.650;2023-04-25T00:36:03;4.57;;;3.30;;
18917;SDS011;9591;52.742;13.650;2023-04-25T00:38:51;5.43;;;3.40;;
18917;SDS011;9591;52.742;13.650;2023-04-25T00:41:39;5.03;;;3.60;;
18917;SDS011;9591;52.742;13.650;2023-04-25T00:44:26;5.97;;;3.27;;
18917;SDS011;9591;52.742;13.650;2023-04-25T00:47:15;8.10;;;3.40;;
18917;SDS011;9591;52.742;13.650;2023-04-25T00:50:02;3.63;;;3.33;;
18917;SDS011;9591;52.742;13.650;2023-04-25T00:52:49;3.33;;;3.03;;
18917;SDS011;9591;52.742;13.650;2023-04-25T00:55:38;7.50;;;3.00;;
18917;SDS011;9591;52.742;13.650;2023-04-25T00:58:25;6.23;;;3.10;;
18917;SDS011;9591;52.742;13.650;2023-04-25T01:01:12;5.63;;;2.90;;
18917;SDS011;9591;52.742;13.650;2023-04-25T01:03:59;7.03;;;3.27;;
18917;SDS011;9591;52.742;13.650;2023-04-25T01:06:47;4.20;;;2.77;;
18917;SDS011;9591;52.742;13.650;2023-04-25T01:09:34;4.73;;;2.50;;
18917;SDS011;9591;52.742;13.650;2023-04-25T01:12:23;3.43;;;2.67;;
18917;SDS011;9591;52.742;13.650;2023-04-25T01:15:10;4.33;;;2.73;;
18917;SDS011;9591;52.742;13.650;2023-04-25T01:17:57;3.27;;;2.80;;
18917;SDS011;9591;52.742;13.650;2023-04-25T01:20:46;7.23;;;2.93;;
18917;SDS011;9591;52.742;13.650;2023-04-25T01:23:37;5.63;;;2.57;;
18917;SDS011;9591;52.742;13.650;2023-04-25T01:26:24;7.03;;;2.70;;
18917;SDS011;9591;52.742;13.650;2023-04-25T01:29:12;4.97;;;3.00;;
18917;SDS011;9591;52.742;13.650;2023-04-25T01:31:59;6.23;;;3.17;;
18917;SDS011;9591;52.742;13.650;2023-04-25T01:34:46;3.87;;;2.90;;
18917;SDS011;9591;52.742;13.650;2023-04-25T01:37:33;7.90;;;3.10;;
18917;SDS011;9591;52.742;13.650;2023-04-25T01:40:21;7.30;;;2.70;;
18917;SDS011;9591;52.742;13.650;2023-04-25T01:43:08;6.87;;;3.03;;
18917;SDS011;9591;52.742;13.650;2023-04-25T01:45:56;4.37;;;3.17;;
18917;SDS011;9591;52.742;13.650;2023-04-25T01:48:43;6.10;;;2.63;;
18917;SDS011;9591;52.742;13.650;2023-04-25T01:51:31;5.20;;;3.57;;
18917;SDS011;9591;52.742;13.650;2023-04-25T01:54:18;4.67;;;3.40;;
18917;SDS011;9591;52.742;13.650;2023-04-25T01:57:07;4.27;;;2.50;;
18917;SDS011;9591;52.742;13.650;2023-04-25T01:59:54;7.73;;;3.10;;
18917;SDS011;9591;52.742;13.650;2023-04-25T02:02:57;8.27;;;3.73;;
18917;SDS011;9591;52.742;13.650;2023-04-25T02:05:48;7.20;;;3.10;;
18917;SDS011;9591;52.742;13.650;2023-04-25T02:08:36;6.77;;;3.33;;
18917;SDS011;9591;52.742;13.650;2023-04-25T02:11:23;4.07;;;2.57;;
18917;SDS011;9591;52.742;13.650;2023-04-25T02:14:30;7.00;;;2.83;;
18917;SDS011;9591;52.742;13.650;2023-04-25T02:17:22;4.67;;;3.07;;
18917;SDS011;9591;52.742;13.650;2023-04-25T02:20:09;3.60;;;2.57;;
18917;SDS011;9591;52.742;13.650;2023-04-25T02:22:57;8.23;;;2.70;;
18917;SDS011;9591;52.742;13.650;2023-04-25T02:25:45;3.73;;;2.80;;
18917;SDS011;9591;52.742;13.650;2023-04-25T02:28:32;4.17;;;2.57;;
18917;SDS011;9591;52.742;13.650;2023-04-25T02:31:23;4.70;;;2.60;;
18917;SDS011;9591;52.742;13.650;2023-04-25T02:34:11;6.07;;;2.73;;
18917;SDS011;9591;52.742;13.650;2023-04-25T02:36:57;4.87;;;2.50;;
18917;SDS011;9591;52.742;13.650;2023-04-25T02:39:44;6.57;;;2.80;;
18917;SDS011;9591;52.742;13.650;2023-04-25T02:42:31;5.33;;;2.50;;
18917;SDS011;9591;52.742;13.650;2023-04-25T02:45:18;6.23;;;3.10;;
18917;SDS011;9591;52.742;13.650;2023-04-25T02:48:07;6.73;;;2.50;;
18917;SDS011;9591;52.742;13.650;2023-04-25T02:50:53;3.93;;;2.10;;
18917;SDS011;9591;52.742;13.650;2023-04-25T02:53:40;10.33;;;2.90;;
18917;SDS011;9591;52.742;13.650;2023-04-25T02:56:27;8.00;;;2.87;;
18917;SDS011;9591;52.742;13.650;2023-04-25T02:59:14;3.13;;;2.73;;
18917;SDS011;9591;52.742;13.650;2023-04-25T03:02:01;7.57;;;2.83;;
18917;SDS011;9591;52.742;13.650;2023-04-25T03:04:50;6.37;;;3.00;;
18917;SDS011;9591;52.742;13.650;2023-04-25T03:07:39;9.63;;;3.50;;
18917;SDS011;9591;52.742;13.650;2023-04-25T03:10:29;3.97;;;3.13;;
18917;SDS011;9591;52.742;13.650;2023-04-25T03:13:20;5.93;;;2.97;;
18917;SDS011;9591;52.742;13.650;2023-04-25T03:16:09;9.33;;;2.90;;
18917;SDS011;9591;52.742;13.650;2023-04-25T03:18:57;6.90;;;3.00;;
18917;SDS011;9591;52.742;13.650;2023-04-25T03:21:47;7.90;;;3.20;;
18917;SDS011;9591;52.742;13.650;2023-04-25T03:24:37;7.53;;;3.20;;
18917;SDS011;9591;52.742;13.650;2023-04-25T03:27:26;5.37;;;2.23;;
18917;SDS011;9591;52.742;13.650;2023-04-25T03:30:15;6.47;;;3.23;;
18917;SDS011;9591;52.742;13.650;2023-04-25T03:33:04;7.23;;;2.80;;
18917;SDS011;9591;52.742;13.650;2023-04-25T03:35:53;7.47;;;3.43;;
18917;SDS011;9591;52.742;13.650;2023-04-25T03:38:42;4.80;;;3.20;;
18917;SDS011;9591;52.742;13.650;2023-04-25T03:41:31;10.27;;;3.03;;
18917;SDS011;9591;52.742;13.650;2023-04-25T03:44:22;7.07;;;2.90;;
18917;SDS011;9591;52.742;13.650;2023-04-25T03:47:14;8.10;;;3.57;;
18917;SDS011;9591;52.742;13.650;2023-04-25T03:50:04;10.97;;;3.30;;
18917;SDS011;9591;52.742;13.650;2023-04-25T03:52:58;4.00;;;3.20;;
18917;SDS011;9591;52.742;13.650;2023-04-25T03:56:14;4.73;;;3.10;;
18917;SDS011;9591;52.742;13.650;2023-04-25T03:59:18;8.07;;;3.33;;
18917;SDS011;9591;52.742;13.650;2023-04-25T04:02:15;6.23;;;3.30;;
18917;SDS011;9591;52.742;13.650;2023-04-25T04:05:16;7.87;;;3.33;;
18917;SDS011;9591;52.742;13.650;2023-04-25T04:08:09;11.80;;;3.73;;
18917;SDS011;9591;52.742;13.650;2023-04-25T04:10:57;7.47;;;3.10;;
18917;SDS011;9591;52.742;13.650;2023-04-25T04:13:46;7.13;;;3.27;;
18917;SDS011;9591;52.742;13.650;2023-04-25T04:16:33;10.97;;;4.17;;
18917;SDS011;9591;52.742;13.650;2023-04-25T04:19:20;8.13;;;4.07;;
18917;SDS011;9591;52.742;13.650;2023-04-25T04:22:24;9.47;;;3.43;;
18917;SDS011;9591;52.742;13.650;2023-04-25T04:25:32;13.90;;;3.20;;
18917;SDS011;9591;52.742;13.650;2023-04-25T04:28:35;10.30;;;4.13;;
18917;SDS011;9591;52.742;13.650;2023-04-25T04:31:32;7.37;;;3.10;;
18917;SDS011;9591;52.742;13.650;2023-04-25T04:34:19;8.67;;;3.80;;
18917;SDS011;9591;52.742;13.650;2023-04-25T04:37:06;7.67;;;3.03;;
18917;SDS011;9591;52.742;13.650;2023-04-25T04:39:55;6.73;;;3.67;;
18917;SDS011;9591;52.742;13.650;2023-04-25T04:42:59;11.50;;;3.83;;
18917;SDS011;9591;52.742;13.650;2023-04-25T04:45:46;8.50;;;3.40;;
18917;SDS011;9591;52.742;13.650;2023-04-25T04:48:51;4.23;;;3.30;;
18917;SDS011;9591;52.742;13.650;2023-04-25T04:52:00;14.03;;;3.33;;
18917;SDS011;9591;52.742;13.650;2023-04-25T04:55:17;6.77;;;3.47;;
18917;SDS011;9591;52.742;13.650;2023-04-25T04:58:30;4.93;;;3.43;;
18917;SDS011;9591;52.742;13.650;2023-04-25T05:01:27;7.13;;;3.17;;
18917;SDS011;9591;52.742;13.650;2023-04-25T05:04:23;10.07;;;3.57;;
18917;SDS011;9591;52.742;13.650;2023-04-25T05:07:22;13.47;;;4.30;;
18917;SDS011;9591;52.742;13.650;2023-04-25T05:10:38;4.47;;;3.37;;
18917;SDS011;9591;52.742;13.650;2023-04-25T05:13:43;8.50;;;3.20;;
18917;SDS011;9591;52.742;13.650;2023-04-25T05:16:57;7.23;;;3.23;;
18917;SDS011;9591;52.742;13.650;2023-04-25T05:20:04;5.43;;;3.90;;
18917;SDS011;9591;52.742;13.650;2023-04-25T05:23:12;5.13;;;3.67;;
18917;SDS011;9591;52.742;13.650;2023-04-25T05:26:12;8.53;;;3.40;;
18917;SDS011;9591;52.742;13.650;2023-04-25T05:29:19;6.87;;;3.20;;
18917;SDS011;9591;52.742;13.650;2023-04-25T05:32:20;6.63;;;3.13;;
18917;SDS011;9591;52.742;13.650;2023-04-25T05:35:09;4.93;;;3.17;;
18917;SDS011;9591;52.742;13.650;2023-04-25T05:38:02;7.23;;;3.47;;
18917;SDS011;9591;52.742;13.650;2023-04-25T05:41:08;6.10;;;3.33;;
18917;SDS011;9591;52.742;13.650;2023-04-25T05:44:04;10.90;;;3.60;;
18917;SDS011;9591;52.742;13.650;2023-04-25T05:47:02;5.27;;;3.10;;
18917;SDS011;9591;52.742;13.650;2023-04-25T05:50:09;4.97;;;3.03;;
18917;SDS011;9591;52.742;13.650;2023-04-25T05:53:20;13.07;;;3.73;;
18917;SDS011;9591;52.742;13.650;2023-04-25T05:56:14;9.67;;;3.47;;
18917;SDS011;9591;52.742;13.650;2023-04-25T05:59:05;6.10;;;3.27;;
18917;SDS011;9591;52.742;13.650;2023-04-25T06:01:51;8.20;;;3.17;;
18917;SDS011;9591;52.742;13.650;2023-04-25T06:04:39;7.83;;;3.33;;
18917;SDS011;9591;52.742;13.650;2023-04-25T06:07:27;8.83;;;3.33;;
18917;SDS011;9591;52.742;13.650;2023-04-25T06:10:15;10.53;;;3.50;;
18917;SDS011;9591;52.742;13.650;2023-04-25T06:13:01;6.57;;;3.17;;
18917;SDS011;9591;52.742;13.650;2023-04-25T06:15:50;9.30;;;3.17;;
18917;SDS011;9591;52.742;13.650;2023-04-25T06:18:37;6.13;;;3.60;;
18917;SDS011;9591;52.742;13.650;2023-04-25T06:21:23;5.87;;;3.43;;
18917;SDS011;9591;52.742;13.650;2023-04-25T06:24:12;7.37;;;3.13;;
18917;SDS011;9591;52.742;13.650;2023-04-25T06:26:59;6.00;;;3.00;;
18917;SDS011;9591;52.742;13.650;2023-04-25T06:29:46;5.53;;;3.23;;
18917;SDS011;9591;52.742;13.650;2023-04-25T06:32:33;5.93;;;3.43;;
18917;SDS011;9591;52.742;13.650;2023-04-25T06:35:20;5.70;;;3.70;;
18917;SDS011;9591;52.742;13.650;2023-04-25T06:38:06;8.63;;;3.90;;
18917;SDS011;9591;52.742;13.650;2023-04-25T06:40:57;10.60;;;3.83;;
18917;SDS011;9591;52.742;13.650;2023-04-25T06:43:47;7.17;;;3.70;;
18917;SDS011;9591;52.742;13.650;2023-04-25T06:46:54;9.00;;;3.77;;
18917;SDS011;9591;52.742;13.650;2023-04-25T06:49:41;8.53;;;3.40;;
18917;SDS011;9591;52.742;13.650;2023-04-25T06:52:28;7.60;;;3.60;;
18917;SDS011;9591;52.742;13.650;2023-04-25T06:55:15;8.17;;;3.50;;
18917;SDS011;9591;52.742;13.650;2023-04-25T06:58:28;10.20;;;3.30;;
18917;SDS011;9591;52.742;13.650;2023-04-25T07:01:26;8.63;;;3.83;;
18917;SDS011;9591;52.742;13.650;2023-04-25T07:04:15;6.03;;;3.67;;
18917;SDS011;9591;52.742;13.650;2023-04-25T07:07:09;7.63;;;3.90;;
18917;SDS011;9591;52.742;13.650;2023-04-25T07:10:02;7.53;;;3.50;;
18917;SDS011;9591;52.742;13.650;2023-04-25T07:12:49;5.47;;;3.13;;
18917;SDS011;9591;52.742;13.650;2023-04-25T07:15:38;9.00;;;3.30;;
18917;SDS011;9591;52.742;13.650;2023-04-25T07:18:25;7.10;;;3.30;;
18917;SDS011;9591;52.742;13.650;2023-04-25T07:21:12;5.87;;;3.20;;
18917;SDS011;9591;52.742;13.650;2023-04-25T07:24:01;6.87;;;3.40;;
18917;SDS011;9591;52.742;13.650;2023-04-25T07:26:52;4.37;;;3.23;;
18917;SDS011;9591;52.742;13.650;2023-04-25T07:29:48;10.07;;;3.53;;
18917;SDS011;9591;52.742;13.650;2023-04-25T07:32:36;7.53;;;4.00;;
18917;SDS011;9591;52.742;13.650;2023-04-25T07:35:23;6.50;;;3.30;;
18917;SDS011;9591;52.742;13.650;2023-04-25T07:38:10;7.07;;;3.00;;
18917;SDS011;9591;52.742;13.650;2023-04-25T07:40:57;9.40;;;3.60;;
18917;SDS011;9591;52.742;13.650;2023-04-25T07:43:44;8.03;;;3.30;;
18917;SDS011;9591;52.742;13.650;2023-04-25T07:46:30;9.40;;;3.67;;
18917;SDS011;9591;52.742;13.650;2023-04-25T07:49:22;10.83;;;3.80;;
18917;SDS011;9591;52.742;13.650;2023-04-25T07:52:24;6.77;;;3.50;;
18917;SDS011;9591;52.742;13.650;2023-04-25T07:55:22;10.17;;;3.90;;
18917;SDS011;9591;52.742;13.650;2023-04-25T07:58:28;6.80;;;3.77;;
18917;SDS011;9591;52.742;13.650;2023-04-25T08:01:19;8.17;;;3.50;;
18917;SDS011;9591;52.742;13.650;2023-04-25T08:04:13;8.07;;;3.87;;
18917;SDS011;9591;52.742;13.650;2023-04-25T08:07:10;8.60;;;3.60;;
18917;SDS011;9591;52.742;13.650;2023-04-25T08:10:06;10.63;;;4.43;;
18917;SDS011;9591;52.742;13.650;2023-04-25T08:12:54;10.30;;;3.63;;
18917;SDS011;9591;52.742;13.650;2023-04-25T08:15:41;9.80;;;3.37;;
18917;SDS011;9591;52.742;13.650;2023-04-25T08:18:28;9.17;;;3.97;;
18917;SDS011;9591;52.742;13.650;2023-04-25T08:21:16;11.00;;;3.20;;
18917;SDS011;9591;52.742;13.650;2023-04-25T08:24:04;9.00;;;3.60;;
18917;SDS011;9591;52.742;13.650;2023-04-25T08:26:54;8.23;;;3.70;;
18917;SDS011;9591;52.742;13.650;2023-04-25T08:29:44;9.33;;;3.17;;
18917;SDS011;9591;52.742;13.650;2023-04-25T08:32:31;7.90;;;3.57;;
18917;SDS011;9591;52.742;13.650;2023-04-25T08:35:39;17.37;;;3.50;;
18917;SDS011;9591;52.742;13.650;2023-04-25T08:38:26;13.77;;;3.70;;
18917;SDS011;9591;52.742;13.650;2023-04-25T08:41:14;17.23;;;3.70;;
18917;SDS011;9591;52.742;13.650;2023-04-25T08:44:03;15.23;;;3.90;;
18917;SDS011;9591;52.742;13.650;2023-04-25T08:46:49;13.97;;;3.77;;
18917;SDS011;9591;52.742;13.650;2023-04-25T08:49:45;15.93;;;4.57;;
18917;SDS011;9591;52.742;13.650;2023-04-25T08:52:36;15.80;;;3.83;;
18917;SDS011;9591;52.742;13.650;2023-04-25T08:55:26;16.73;;;4.07;;
18917;SDS011;9591;52.742;13.650;2023-04-25T08:58:18;12.07;;;3.63;;
18917;SDS011;9591;52.742;13.650;2023-04-25T09:01:05;16.60;;;3.80;;
18917;SDS011;9591;52.742;13.650;2023-04-25T09:04:01;17.87;;;3.30;;
18917;SDS011;9591;52.742;13.650;2023-04-25T09:06:48;17.37;;;3.80;;
18917;SDS011;9591;52.742;13.650;2023-04-25T09:09:35;15.07;;;3.77;;
18917;SDS011;9591;52.742;13.650;2023-04-25T09:12:22;10.07;;;3.50;;
18917;SDS011;9591;52.742;13.650;2023-04-25T09:15:12;7.43;;;3.53;;
18917;SDS011;9591;52.742;13.650;2023-04-25T09:18:23;14.83;;;4.53;;
18917;SDS011;9591;52.742;13.650;2023-04-25T09:21:16;14.87;;;3.33;;
18917;SDS011;9591;52.742;13.650;2023-04-25T09:24:05;12.60;;;3.50;;
18917;SDS011;9591;52.742;13.650;2023-04-25T09:26:53;12.53;;;3.50;;
18917;SDS011;9591;52.742;13.650;2023-04-25T09:29:40;12.67;;;2.93;;
18917;SDS011;9591;52.742;13.650;2023-04-25T09:32:30;11.40;;;3.30;;
18917;SDS011;9591;52.742;13.650;2023-04-25T09:35:23;9.10;;;2.93;;
18917;SDS011;9591;52.742;13.650;2023-04-25T09:38:13;13.93;;;3.57;;
18917;SDS011;9591;52.742;13.650;2023-04-25T09:41:15;9.80;;;2.70;;
18917;SDS011;9591;52.742;13.650;2023-04-25T09:44:12;12.60;;;3.13;;
18917;SDS011;9591;52.742;13.650;2023-04-25T09:47:01;13.73;;;2.90;;
18917;SDS011;9591;52.742;13.650;2023-04-25T09:49:52;9.80;;;2.77;;
18917;SDS011;9591;52.742;13.650;2023-04-25T09:52:42;7.23;;;2.87;;
18917;SDS011;9591;52.742;13.650;2023-04-25T09:55:35;7.33;;;2.30;;
18917;SDS011;9591;52.742;13.650;2023-04-25T09:58:27;10.77;;;2.60;;
18917;SDS011;9591;52.742;13.650;2023-04-25T10:01:19;9.10;;;2.30;;
18917;SDS011;9591;52.742;13.650;2023-04-25T10:04:22;4.53;;;2.03;;
18917;SDS011;9591;52.742;13.650;2023-04-25T10:07:22;10.73;;;2.27;;
18917;SDS011;9591;52.742;13.650;2023-04-25T10:10:12;10.67;;;2.40;;
18917;SDS011;9591;52.742;13.650;2023-04-25T10:13:00;11.20;;;2.97;;
18917;SDS011;9591;52.742;13.650;2023-04-25T10:15:46;10.70;;;2.40;;
18917;SDS011;9591;52.742;13.650;2023-04-25T10:18:34;8.27;;;2.30;;
18917;SDS011;9591;52.742;13.650;2023-04-25T10:21:21;8.00;;;2.40;;
18917;SDS011;9591;52.742;13.650;2023-04-25T10:24:10;5.90;;;2.30;;
18917;SDS011;9591;52.742;13.650;2023-04-25T10:26:57;2.70;;;2.00;;
18917;SDS011;9591;52.742;13.650;2023-04-25T10:29:48;5.83;;;1.70;;
18917;SDS011;9591;52.742;13.650;2023-04-25T10:32:55;5.27;;;1.97;;
18917;SDS011;9591;52.742;13.650;2023-04-25T10:35:42;4.07;;;1.93;;
18917;SDS011;9591;52.742;13.650;2023-04-25T10:38:31;4.77;;;2.27;;
18917;SDS011;9591;52.742;13.650;2023-04-25T10:41:20;7.97;;;2.47;;
18917;SDS011;9591;52.742;13.650;2023-04-25T10:44:08;9.60;;;2.30;;
18917;SDS011;9591;52.742;13.650;2023-04-25T10:46:55;4.73;;;2.03;;
18917;SDS011;9591;52.742;13.650;2023-04-25T10:49:43;8.83;;;2.30;;
18917;SDS011;9591;52.742;13.650;2023-04-25T10:52:29;10.97;;;2.20;;
18917;SDS011;9591;52.742;13.650;2023-04-25T10:55:19;10.37;;;2.80;;
18917;SDS011;9591;52.742;13.650;2023-04-25T10:58:07;10.47;;;2.47;;
18917;SDS011;9591;52.742;13.650;2023-04-25T11:00:55;8.83;;;2.27;;
18917;SDS011;9591;52.742;13.650;2023-04-25T11:03:43;8.10;;;2.27;;
18917;SDS011;9591;52.742;13.650;2023-04-25T11:06:32;7.50;;;3.40;;
18917;SDS011;9591;52.742;13.650;2023-04-25T11:09:29;5.60;;;2.43;;
18917;SDS011;9591;52.742;13.650;2023-04-25T11:12:16;4.00;;;1.77;;
18917;SDS011;9591;52.742;13.650;2023-04-25T11:15:04;6.17;;;1.90;;
18917;SDS011;9591;52.742;13.650;2023-04-25T11:17:53;6.27;;;1.90;;
18917;SDS011;9591;52.742;13.650;2023-04-25T11:20:42;7.67;;;2.20;;
18917;SDS011;9591;52.742;13.650;2023-04-25T11:23:29;8.13;;;2.30;;
18917;SDS011;9591;52.742;13.650;2023-04-25T11:26:16;7.83;;;2.30;;
18917;SDS011;9591;52.742;13.650;2023-04-25T11:29:05;6.23;;;2.27;;
18917;SDS011;9591;52.742;13.650;2023-04-25T11:31:53;5.77;;;2.20;;
18917;SDS011;9591;52.742;13.650;2023-04-25T11:34:43;5.67;;;2.10;;
18917;SDS011;9591;52.742;13.650;2023-04-25T11:37:30;5.67;;;2.40;;
18917;SDS011;9591;52.742;13.650;2023-04-25T11:40:17;5.67;;;2.00;;
18917;SDS011;9591;52.742;13.650;2023-04-25T11:43:04;5.20;;;1.77;;
18917;SDS011;9591;52.742;13.650;2023-04-25T11:45:51;5.50;;;1.67;;
18917;SDS011;9591;52.742;13.650;2023-04-25T11:48:39;5.17;;;1.87;;
18917;SDS011;9591;52.742;13.650;2023-04-25T11:51:26;8.57;;;1.80;;
18917;SDS011;9591;52.742;13.650;2023-04-25T11:54:13;5.07;;;1.83;;
18917;SDS011;9591;52.742;13.650;2023-04-25T11:57:00;6.20;;;1.90;;
18917;SDS011;9591;52.742;13.650;2023-04-25T11:59:47;9.23;;;1.87;;
18917;SDS011;9591;52.742;13.650;2023-04-25T12:02:34;8.40;;;1.87;;
18917;SDS011;9591;52.742;13.650;2023-04-25T12:05:25;7.47;;;2.27;;
18917;SDS011;9591;52.742;13.650;2023-04-25T12:08:17;8.17;;;2.27;;
18917;SDS011;9591;52.742;13.650;2023-04-25T12:11:04;5.87;;;1.97;;
18917;SDS011;9591;52.742;13.650;2023-04-25T12:13:51;9.50;;;2.20;;
18917;SDS011;9591;52.742;13.650;2023-04-25T12:16:42;6.03;;;2.60;;
18917;SDS011;9591;52.742;13.650;2023-04-25T12:19:31;4.23;;;2.20;;
18917;SDS011;9591;52.742;13.650;2023-04-25T12:22:22;3.83;;;1.97;;
18917;SDS011;9591;52.742;13.650;2023-04-25T12:25:10;5.27;;;1.77;;
18917;SDS011;9591;52.742;13.650;2023-04-25T12:28:08;6.73;;;2.00;;
18917;SDS011;9591;52.742;13.650;2023-04-25T12:30:56;3.43;;;1.53;;
18917;SDS011;9591;52.742;13.650;2023-04-25T12:33:44;3.93;;;1.60;;
18917;SDS011;9591;52.742;13.650;2023-04-25T12:36:32;3.13;;;1.80;;
18917;SDS011;9591;52.742;13.650;2023-04-25T12:39:21;6.00;;;1.87;;
18917;SDS011;9591;52.742;13.650;2023-04-25T12:42:09;8.90;;;2.10;;
18917;SDS011;9591;52.742;13.650;2023-04-25T12:44:57;7.20;;;2.23;;
18917;SDS011;9591;52.742;13.650;2023-04-25T12:47:44;6.00;;;1.90;;
18917;SDS011;9591;52.742;13.650;2023-04-25T12:50:31;4.93;;;1.90;;
18917;SDS011;9591;52.742;13.650;2023-04-25T12:53:18;7.00;;;2.27;;
18917;SDS011;9591;52.742;13.650;2023-04-25T12:56:08;4.73;;;2.33;;
18917;SDS011;9591;52.742;13.650;2023-04-25T12:58:55;8.80;;;2.33;;
18917;SDS011;9591;52.742;13.650;2023-04-25T13:01:41;5.13;;;2.13;;
18917;SDS011;9591;52.742;13.650;2023-04-25T13:04:29;7.60;;;2.07;;
18917;SDS011;9591;52.742;13.650;2023-04-25T13:07:16;5.03;;;2.10;;
18917;SDS011;9591;52.742;13.650;2023-04-25T13:10:03;4.57;;;1.83;;
18917;SDS011;9591;52.742;13.650;2023-04-25T13:12:51;7.33;;;2.40;;
18917;SDS011;9591;52.742;13.650;2023-04-25T13:15:38;6.30;;;2.20;;
18917;SDS011;9591;52.742;13.650;2023-04-25T13:18:25;4.43;;;1.93;;
18917;SDS011;9591;52.742;13.650;2023-04-25T13:21:12;11.43;;;2.30;;
18917;SDS011;9591;52.742;13.650;2023-04-25T13:23:59;10.43;;;1.97;;
18917;SDS011;9591;52.742;13.650;2023-04-25T13:26:46;6.43;;;2.37;;
18917;SDS011;9591;52.742;13.650;2023-04-25T13:29:37;5.57;;;1.90;;
18917;SDS011;9591;52.742;13.650;2023-04-25T13:32:25;6.40;;;1.97;;
18917;SDS011;9591;52.742;13.650;2023-04-25T13:35:17;2.90;;;1.63;;
18917;SDS011;9591;52.742;13.650;2023-04-25T13:38:04;8.40;;;2.37;;
18917;SDS011;9591;52.742;13.650;2023-04-25T13:40:51;5.70;;;2.47;;
18917;SDS011;9591;52.742;13.650;2023-04-25T13:43:38;8.53;;;2.23;;
18917;SDS011;9591;52.742;13.650;2023-04-25T13:46:26;4.77;;;2.60;;
18917;SDS011;9591;52.742;13.650;2023-04-25T13:49:30;5.97;;;1.90;;
18917;SDS011;9591;52.742;13.650;2023-04-25T13:52:17;5.40;;;1.73;;
18917;SDS011;9591;52.742;13.650;2023-04-25T13:55:04;4.13;;;2.23;;
18917;SDS011;9591;52.742;13.650;2023-04-25T13:57:52;6.93;;;2.20;;
18917;SDS011;9591;52.742;13.650;2023-04-25T14:00:39;5.23;;;2.20;;
18917;SDS011;9591;52.742;13.650;2023-04-25T14:03:30;9.47;;;1.80;;
18917;SDS011;9591;52.742;13.650;2023-04-25T14:06:17;3.97;;;2.20;;
18917;SDS011;9591;52.742;13.650;2023-04-25T14:09:08;9.43;;;2.73;;
18917;SDS011;9591;52.742;13.650;2023-04-25T14:11:55;6.20;;;2.07;;
18917;SDS011;9591;52.742;13.650;2023-04-25T14:14:42;7.00;;;2.10;;
18917;SDS011;9591;52.742;13.650;2023-04-25T14:17:30;9.60;;;2.13;;
18917;SDS011;9591;52.742;13.650;2023-04-25T14:20:18;4.13;;;1.80;;
18917;SDS011;9591;52.742;13.650;2023-04-25T14:23:06;9.90;;;2.33;;
18917;SDS011;9591;52.742;13.650;2023-04-25T14:25:53;4.70;;;2.40;;
18917;SDS011;9591;52.742;13.650;2023-04-25T14:28:40;3.90;;;1.77;;
18917;SDS011;9591;52.742;13.650;2023-04-25T14:31:26;7.57;;;2.27;;
18917;SDS011;9591;52.742;13.650;2023-04-25T14:34:13;6.97;;;2.07;;
18917;SDS011;9591;52.742;13.650;2023-04-25T14:37:02;8.87;;;1.90;;
18917;SDS011;9591;52.742;13.650;2023-04-25T14:39:48;6.37;;;2.00;;
18917;SDS011;9591;52.742;13.650;2023-04-25T14:42:35;7.50;;;2.10;;
18917;SDS011;9591;52.742;13.650;2023-04-25T14:45:22;4.30;;;1.60;;
18917;SDS011;9591;52.742;13.650;2023-04-25T14:48:09;3.87;;;1.60;;
18917;SDS011;9591;52.742;13.650;2023-04-25T14:50:55;5.27;;;1.90;;
18917;SDS011;9591;52.742;13.650;2023-04-25T14:53:44;7.13;;;1.50;;
18917;SDS011;9591;52.742;13.650;2023-04-25T14:56:30;8.23;;;1.40;;
18917;SDS011;9591;52.742;13.650;2023-04-25T14:59:17;4.73;;;1.67;;
18917;SDS011;9591;52.742;13.650;2023-04-25T15:02:05;6.33;;;1.90;;
18917;SDS011;9591;52.742;13.650;2023-04-25T15:04:52;3.70;;;1.80;;
18917;SDS011;9591;52.742;13.650;2023-04-25T15:07:39;2.40;;;1.27;;
18917;SDS011;9591;52.742;13.650;2023-04-25T15:10:32;2.70;;;1.20;;
18917;SDS011;9591;52.742;13.650;2023-04-25T15:13:24;6.60;;;1.60;;
18917;SDS011;9591;52.742;13.650;2023-04-25T15:16:11;2.70;;;2.10;;
18917;SDS011;9591;52.742;13.650;2023-04-25T15:18:58;3.40;;;1.57;;
18917;SDS011;9591;52.742;13.650;2023-04-25T15:21:49;5.13;;;1.60;;
18917;SDS011;9591;52.742;13.650;2023-04-25T15:24:36;3.23;;;1.50;;
18917;SDS011;9591;52.742;13.650;2023-04-25T15:27:24;2.03;;;1.30;;
18917;SDS011;9591;52.742;13.650;2023-04-25T15:30:13;2.83;;;1.20;;
18917;SDS011;9591;52.742;13.650;2023-04-25T15:33:00;5.90;;;1.47;;
18917;SDS011;9591;52.742;13.650;2023-04-25T15:35:47;4.90;;;1.50;;
18917;SDS011;9591;52.742;13.650;2023-04-25T15:38:34;6.03;;;1.53;;
18917;SDS011;9591;52.742;13.650;2023-04-25T15:41:21;3.23;;;1.57;;
18917;SDS011;9591;52.742;13.650;2023-04-25T15:44:09;2.63;;;1.73;;
18917;SDS011;9591;52.742;13.650;2023-04-25T15:46:56;2.63;;;1.23;;
18917;SDS011;9591;52.742;13.650;2023-04-25T15:49:42;5.40;;;1.33;;
18917;SDS011;9591;52.742;13.650;2023-04-25T15:52:29;6.83;;;1.97;;
18917;SDS011;9591;52.742;13.650;2023-04-25T15:55:17;3.27;;;1.93;;
18917;SDS011;9591;52.742;13.650;2023-04-25T15:58:05;1.90;;;1.40;;
18917;SDS011;9591;52.742;13.650;2023-04-25T16:00:57;3.87;;;1.50;;
18917;SDS011;9591;52.742;13.650;2023-04-25T16:03:44;4.97;;;1.47;;
18917;SDS011;9591;52.742;13.650;2023-04-25T16:06:31;2.70;;;1.30;;
18917;SDS011;9591;52.742;13.650;2023-04-25T16:09:18;2.30;;;1.37;;
18917;SDS011;9591;52.742;13.650;2023-04-25T16:12:05;1.87;;;1.13;;
18917;SDS011;9591;52.742;13.650;2023-04-25T16:14:52;3.40;;;1.30;;
18917;SDS011;9591;52.742;13.650;2023-04-25T16:17:40;2.57;;;1.20;;
18917;SDS011;9591;52.742;13.650;2023-04-25T16:20:27;2.63;;;1.13;;
18917;SDS011;9591;52.742;13.650;2023-04-25T16:23:14;3.13;;;1.37;;
18917;SDS011;9591;52.742;13.650;2023-04-25T16:26:01;4.33;;;1.27;;
18917;SDS011;9591;52.742;13.650;2023-04-25T16:28:47;3.30;;;1.30;;
18917;SDS011;9591;52.742;13.650;2023-04-25T16:31:34;1.40;;;1.30;;
18917;SDS011;9591;52.742;13.650;2023-04-25T16:34:22;5.93;;;1.57;;
18917;SDS011;9591;52.742;13.650;2023-04-25T16:37:11;7.60;;;1.73;;
18917;SDS011;9591;52.742;13.650;2023-04-25T16:39:58;4.50;;;1.37;;
18917;SDS011;9591;52.742;13.650;2023-04-25T16:42:44;2.20;;;1.43;;
18917;SDS011;9591;52.742;13.650;2023-04-25T16:45:31;5.93;;;1.40;;
18917;SDS011;9591;52.742;13.650;2023-04-25T16:48:18;8.87;;;1.67;;
18917;SDS011;9591;52.742;13.650;2023-04-25T16:51:09;2.63;;;1.33;;
18917;SDS011;9591;52.742;13.650;2023-04-25T16:53:56;6.80;;;1.43;;
18917;SDS011;9591;52.742;13.650;2023-04-25T16:56:43;7.93;;;1.47;;
18917;SDS011;9591;52.742;13.650;2023-04-25T16:59:29;6.97;;;1.87;;
18917;SDS011;9591;52.742;13.650;2023-04-25T17:02:16;3.40;;;1.23;;
18917;SDS011;9591;52.742;13.650;2023-04-25T17:05:03;8.20;;;1.33;;